Terminal Aerodrome Forecast
Issued by NWS

Home | Current Version | Previous Version | Text Only | Print | Product List | Glossary On
Versions: 1 2 3 4 5 6 7 8 9 10 11 12 13 14 15 16 17 18 19 20 21
000
FTUS43 KDVN 281200 AAA
TAFBRL
TAF AMD
KBRL 281255Z 2813/2912 09006KT P6SM BKN016 OVC050
     FM281400 09007KT 4SM TSRA BKN025CB OVC040
     FM281600 11006KT 6SM BR VCSH BKN040
     FM282000 13008KT P6SM BKN040 PROB30 2822/2824 4SM TSRA BKN020CB
      OVC030
     FM290400 14006KT 4SM BR BKN120=

USA.gov is the U.S. government's official web portal to all federal, state and local government web resources and services.